Flight Track Log - Related Links

Times and Time Zones

All times are in EDT time to prevent confusion due to time zone crossing. See the AWE1262 flight status page for this flight to view local times or setup timezone preferences in your user account.

Time Position Orientation Groundspeed Altitude Reporting Facility
EDT Latitude Longitude Course Direction KTS MPH feet Rate Location/Type
Tue 06:46:05 PM 44.9056 -93.2444 130° Southeast 148 170 2,400  Level FAA TRACON SMA TRACON (SMA)
Tue 06:46:24 PM 44.9244 -93.2461 356° North 177 204 3,000 2,250 Climbing FAA TRACON SMA TRACON (SMA)
Tue 06:46:45 PM 44.9414 -93.2447 North 196 226 3,900 3,073 Climbing FAA TRACON SMA TRACON (SMA)
Tue 06:47:05 PM 44.9594 -93.2433 North 206 237 5,100 2,850 Climbing FAA TRACON SMA TRACON (SMA)
Tue 06:47:25 PM 44.9819 -93.2417 North 211 243 5,800 1,500 Climbing FAA TRACON SMA TRACON (SMA)
Tue 06:47:45 PM 45.0003 -93.2342 16° North 225 259 6,100 1,050 Climbing FAA TRACON SMA TRACON (SMA)
Tue 06:48:05 PM 45.0172 -93.2183 33° Northeast 233 268 6,500 1,231 Climbing FAA TRACON SMA TRACON (SMA)
Tue 06:48:24 PM 45.0339 -93.2028 33° Northeast 236 272 6,900 1,692 Climbing FAA TRACON SMA TRACON (SMA)
Tue 06:48:44 PM 45.0564 -93.1819 33° Northeast 248 285 7,600 2,550 Climbing FAA TRACON SMA TRACON (SMA)
Tue 06:49:00 PM 44.6241 -92.4055 115° Southeast  Level FlightAware Approximate
Tue 06:49:04 PM 45.0750 -93.1636 35° Northeast 262 302 8,600  Level FAA TRACON SMA TRACON (SMA)
Tue 06:49:24 PM 45.0942 -93.1439 36° Northeast 273 314 9,600 3,150 Climbing FAA TRACON SMA TRACON (SMA)
Tue 06:49:44 PM 45.1067 -93.1042 66° East 295 339 10,700 2,100 Climbing FAA TRACON SMA TRACON (SMA)
Tue 06:50:00 PM 44.5676 -92.2482 117° Southeast  Level FlightAware Approximate
Tue 06:50:04 PM 45.1011 -93.0669 102° East 318 366 11,000  Level FAA TRACON SMA TRACON (SMA)
Tue 06:50:24 PM 45.0822 -93.0347 130° Southeast 342 394 11,600 2,488 Climbing FAA TRACON SMA TRACON (SMA)
Tue 06:50:45 PM 45.0564 -92.9936 132° Southeast 358 412 12,700 2,927 Climbing FAA TRACON SMA TRACON (SMA)
Tue 06:51:00 PM 44.4979 -92.1076 130° Southeast  Level FlightAware Approximate
Tue 06:51:05 PM 45.0364 -92.9606 131° Southeast 363 418 13,600  Level FAA TRACON SMA TRACON (SMA)
Tue 06:51:25 PM 45.0161 -92.9272 131° Southeast 365 420 14,600 2,769 Climbing FAA TRACON SMA TRACON (SMA)
Tue 06:51:44 PM 44.9944 -92.8925 131° Southeast 373 429 15,400 2,769 Climbing FAA TRACON SMA TRACON (SMA)
Tue 06:52:04 PM 44.9678 -92.8497 131° Southeast 379 436 16,400 2,700 Climbing FAA TRACON SMA TRACON (SMA)
Tue 06:52:24 PM 44.9467 -92.8156 131° Southeast 380 437 17,200 2,250 Climbing FAA TRACON SMA TRACON (SMA)
Tue 06:52:44 PM 44.9244 -92.7800 131° Southeast 387 445 17,900 2,550 Climbing FAA TRACON SMA TRACON (SMA)
Tue 06:53:04 PM 44.8967 -92.7358 132° Southeast 390 449 18,900 2,700 Climbing FAA TRACON SMA TRACON (SMA)
Tue 06:53:24 PM 44.8747 -92.7006 131° Southeast 392 451 19,700 2,100 Climbing FAA TRACON SMA TRACON (SMA)
Tue 06:53:44 PM 44.8519 -92.6644 132° Southeast 397 457 20,300 1,950 Climbing FAA TRACON SMA TRACON (SMA)
Tue 06:54:04 PM 44.8231 -92.6189 132° Southeast 405 466 21,000 2,100 Climbing FAA TRACON SMA TRACON (SMA)
Tue 06:54:24 PM 44.8000 -92.5814 131° Southeast 410 472 21,700 1,950 Climbing FAA TRACON SMA TRACON (SMA)
Tue 06:54:44 PM 44.7758 -92.5439 132° Southeast 416 479 22,300 2,049 Climbing FAA TRACON SMA TRACON (SMA)
Tue 06:55:05 PM 44.7464 -92.4967 131° Southeast 419 482 23,100 2,100 Climbing FAA TRACON SMA TRACON (SMA)
Tue 06:55:24 PM 44.7225 -92.4581 131° Southeast 423 487 23,700 1,650 Climbing FAA TRACON SMA TRACON (SMA)
Tue 06:55:45 PM 44.6975 -92.4194 132° Southeast 431 496 24,200 1,756 Climbing FAA TRACON SMA TRACON (SMA)
Tue 06:56:05 PM 44.6667 -92.3706 132° Southeast 436 502 24,900 2,049 Climbing FAA TRACON SMA TRACON (SMA)
Tue 06:56:26 PM 44.6428 -92.3306 130° Southeast 436 502 25,600 2,000 Climbing FAA TRACON SMA TRACON (SMA)
Tue 06:56:47 PM 44.6114 -92.2819 132° Southeast 438 504 26,300 1,692 Climbing FAA TRACON SMA TRACON (SMA)
Tue 06:57:05 PM 44.5867 -92.2417 131° Southeast 441 507 26,700 1,459 Climbing FAA TRACON SMA TRACON (SMA)
Tue 06:57:24 PM 44.5622 -92.2011 130° Southeast 445 512 27,200 1,538 Climbing FAA TRACON SMA TRACON (SMA)
Tue 06:57:44 PM 44.5383 -92.1578 128° Southeast 451 519 27,700 1,500 Climbing FAA TRACON SMA TRACON (SMA)
Tue 06:58:04 PM 44.5119 -92.1003 123° Southeast 458 527 28,200 1,650 Climbing FAA TRACON SMA TRACON (SMA)
Tue 06:58:24 PM 44.4875 -92.0561 128° Southeast 463 533 28,800 1,650 Climbing FAA TRACON SMA TRACON (SMA)
Tue 06:58:44 PM 44.4667 -92.0097 122° Southeast 462 532 29,300 1,200 Climbing FAA TRACON SMA TRACON (SMA)
Tue 06:59:04 PM 44.4483 -91.9767 128° Southeast 462 532 29,600 1,484 Climbing FAA TRACON SMA TRACON (SMA)
Tue 07:00:17 PM 44.3481 -91.7919 127° Southeast 469 540 31,600 1,689 Climbing Minneapolis Center
Tue 07:01:19 PM 44.2858 -91.6294 118° Southeast 476 548 33,400 1,536 Climbing Minneapolis Center
Tue 07:02:22 PM 44.2297 -91.4644 115° Southeast 475 547 34,800 1,152 Climbing Minneapolis Center
Tue 07:03:24 PM 44.1753 -91.2983 115° Southeast 474 545 35,800 823 Climbing Minneapolis Center
Tue 07:04:26 PM 44.1208 -91.1294 114° Southeast 476 548 36,500 581 Climbing Minneapolis Center
Tue 07:05:28 PM 44.0522 -90.9242 115° Southeast 482 555 37,000 242 Climbing Minneapolis Center
Tue 07:06:30 PM 43.9931 -90.7506 115° Southeast 492 566 37,000  Level Minneapolis Center
Tue 07:07:32 PM 43.9319 -90.5692 115° Southeast 511 588 37,000  Level Minneapolis Center
Tue 07:08:34 PM 43.8686 -90.3883 116° Southeast 512 589 37,000  Level Minneapolis Center
Tue 07:09:36 PM 43.7989 -90.1806 115° Southeast 511 588 37,000  Level Minneapolis Center
Tue 07:10:38 PM 43.7364 -90.0039 116° Southeast 513 590 37,000  Level Minneapolis Center
Tue 07:11:40 PM 43.6742 -89.8256 116° Southeast 514 592 37,000  Level Minneapolis Center
Tue 07:12:46 PM 43.5994 -89.6175 116° Southeast 517 595 37,000  Level Chicago Center
Tue 07:13:48 PM 43.5367 -89.4414 116° Southeast 514 592 37,000  Level Chicago Center
Tue 07:14:50 PM 43.4739 -89.2622 116° Southeast 517 595 37,000  Level Chicago Center
Tue 07:15:52 PM 43.4100 -89.0856 116° Southeast 519 597 37,000  Level Chicago Center
Tue 07:16:55 PM 43.3467 -88.9097 116° Southeast 517 595 37,000  Level Chicago Center
Tue 07:17:57 PM 43.2722 -88.7064 117° Southeast 517 595 37,000  Level Chicago Center
Tue 07:18:59 PM 43.2086 -88.5331 117° Southeast 517 595 37,000  Level Chicago Center
Tue 07:20:01 PM 43.1447 -88.3597 117° Southeast 516 594 37,000  Level Chicago Center
Tue 07:21:03 PM 43.1036 -88.1706 107° East 527 606 37,000  Level Chicago Center
Tue 07:22:05 PM 43.0792 -87.9369 98° East 536 617 37,000  Level Chicago Center
Tue 07:23:07 PM 43.0575 -87.7364 98° East 535 616 37,000  Level Chicago Center
Tue 07:24:09 PM 43.0336 -87.5347 99° East 536 617 37,000  Level Chicago Center
Tue 07:25:11 PM 43.0131 -87.3419 98° East 540 621 37,000  Level Chicago Center
Tue 07:26:13 PM 42.9906 -87.1425 99° East 534 615 37,000  Level Chicago Center
Tue 07:27:15 PM 42.9622 -86.9053 99° East 531 611 37,000  Level Chicago Center
Tue 07:28:16 PM 42.9389 -86.7050 99° East 536 617 37,000  Level Chicago Center
Tue 07:29:18 PM 42.9147 -86.5058 99° East 537 618 37,000  Level Chicago Center
Tue 07:30:20 PM 42.8894 -86.3089 100° East 534 615 37,000  Level Chicago Center
Tue 07:31:22 PM 42.8656 -86.1136 99° East 533 613 37,000  Level Chicago Center
Tue 07:32:24 PM 42.8364 -85.8794 100° East 535 616 37,000  Level Chicago Center
Tue 07:33:26 PM 42.8114 -85.6828 100° East 535 616 37,000  Level Chicago Center
Tue 07:34:28 PM 42.7803 -85.4875 102° East 533 613 37,000  Level Chicago Center
Tue 07:35:30 PM 42.7211 -85.3083 114° Southeast 524 603 37,000  Level Chicago Center
Tue 07:36:32 PM 42.6592 -85.1325 116° Southeast 519 597 37,000  Level Chicago Center
Tue 07:37:33 PM 42.5831 -84.9200 116° Southeast 521 600 37,000  Level Chicago Center
Tue 07:38:35 PM 42.5194 -84.7425 116° Southeast 524 603 37,000  Level Chicago Center
Tue 07:39:26 PM 42.4614 -84.5886 117° Southeast 521 600 37,000  Level Cleveland Center
Tue 07:40:26 PM 42.3964 -84.4100 116° Southeast 521 600 37,000  Level Cleveland Center
Tue 07:41:26 PM 42.3333 -84.2350 116° Southeast 521 600 37,000  Level Cleveland Center
Tue 07:42:26 PM 42.2700 -84.0600 116° Southeast 521 600 37,000  Level Cleveland Center
Tue 07:43:26 PM 42.2064 -83.8883 117° Southeast 521 600 37,000  Level Cleveland Center
Tue 07:44:26 PM 42.1403 -83.7139 117° Southeast 521 600 37,000  Level Cleveland Center
Tue 07:45:26 PM 42.0800 -83.5544 117° Southeast 521 600 37,000  Level Cleveland Center
Tue 07:46:26 PM 42.0092 -83.3861 119° Southeast 515 593 37,000  Level Cleveland Center
Tue 07:47:26 PM 41.9294 -83.2319 125° Southeast 515 593 37,000  Level Cleveland Center
Tue 07:48:26 PM 41.8372 -83.0608 126° Southeast 515 593 37,000  Level Cleveland Center
Tue 07:49:26 PM 41.7550 -82.9044 125° Southeast 510 587 37,000  Level Cleveland Center
Tue 07:50:26 PM 41.6728 -82.7486 125° Southeast 510 587 37,000  Level Cleveland Center
Tue 07:51:26 PM 41.6092 -82.5717 116° Southeast 510 587 37,000  Level Cleveland Center
Tue 07:52:26 PM 41.5539 -82.3922 112° Southeast 522 601 37,000  Level Cleveland Center
Tue 07:53:26 PM 41.4961 -82.2106 113° Southeast 527 606 37,000  Level Cleveland Center
Tue 07:54:26 PM 41.4378 -82.0372 114° Southeast 521 600 37,000  Level Cleveland Center
Tue 07:55:26 PM 41.3797 -81.8533 113° Southeast 521 600 37,000  Level Cleveland Center
Tue 07:56:26 PM 41.3231 -81.6781 113° Southeast 521 600 37,000  Level Cleveland Center
Tue 07:57:26 PM 41.2703 -81.5225 114° Southeast 521 600 37,000  Level Cleveland Center
Tue 07:58:26 PM 41.2092 -81.3422 114° Southeast 527 606 37,000  Level Cleveland Center
Tue 07:59:26 PM 41.1456 -81.1511 114° Southeast 521 600 37,000  Level Cleveland Center
Tue 08:00:26 PM 41.0961 -80.9936 113° Southeast 521 600 37,000  Level Cleveland Center
Tue 08:01:26 PM 41.0342 -80.8172 115° Southeast 521 600 37,000  Level Cleveland Center
Tue 08:02:26 PM 40.9739 -80.6436 115° Southeast 521 600 37,000  Level Cleveland Center
Tue 08:03:26 PM 40.9133 -80.4650 114° Southeast 521 600 37,000  Level Cleveland Center
Tue 08:04:26 PM 40.8464 -80.2811 116° Southeast 515 593 37,000  Level Cleveland Center
Tue 08:05:26 PM 40.7917 -80.1225 114° Southeast 515 593 37,000  Level Cleveland Center
Tue 08:06:26 PM 40.7303 -79.9447 114° Southeast 520 598 37,000  Level Cleveland Center
Tue 08:07:26 PM 40.6667 -79.7756 116° Southeast 520 598 37,000  Level Cleveland Center
Tue 08:08:26 PM 40.6028 -79.6014 116° Southeast 520 598 37,000  Level Cleveland Center
Tue 08:09:26 PM 40.5575 -79.4189 108° East 520 598 37,000  Level Cleveland Center
Tue 08:10:26 PM 40.5344 -79.2308 99° East 512 589 37,000 -150 Level Cleveland Center
Tue 08:11:26 PM 40.5153 -79.0428 98° East 517 595 36,700 -1,250 Descending Cleveland Center
Tue 08:12:26 PM 40.4981 -78.8519 97° East 522 601 34,500 -2,200 Descending Cleveland Center
Tue 08:13:26 PM 40.4783 -78.6697 98° East 522 601 32,300 -2,200 Descending Cleveland Center
Tue 08:14:26 PM 40.4586 -78.4819 98° East 522 601 30,100 -2,308 Descending Cleveland Center
Tue 08:16:15 PM 40.4214 -78.1381 98° East 557 641 25,800 -1,789 Descending New York Center
Tue 08:17:17 PM 40.4028 -77.9669 98° East 509 586 25,000 -393 Descending New York Center
Tue 08:18:17 PM 40.3856 -77.8044 98° East 476 548 25,000  Level New York Center
Tue 08:19:14 PM 40.3681 -77.6392 98° East 463 533 25,000 -661 Level New York Center
Tue 08:20:15 PM 40.3483 -77.4764 99° East 453 521 23,700 -1,785 Descending New York Center
Tue 08:21:15 PM 40.3319 -77.3194 98° East 448 516 21,400 -2,182 Descending New York Center
Tue 08:22:16 PM 40.3128 -77.1761 100° East 426 490 19,300 -1,672 Descending New York Center
Tue 08:23:17 PM 40.2947 -77.0464 100° East 399 459 18,000 -645 Descending New York Center
Tue 08:24:17 PM 40.2592 -76.8883 106° East 405 466 18,000 -205 Level New York Center
Tue 08:25:14 PM 40.2250 -76.7439 107° East 412 474 17,600 -966 Descending New York Center
Tue 08:26:15 PM 40.1961 -76.6136 106° East 412 474 16,100 -1,686 Descending New York Center
Tue 08:27:15 PM 40.1597 -76.4583 107° East 404 465 14,200 -1,817 Descending New York Center
Tue 08:28:04 PM 40.1333 -76.3483 107° East 395 455 12,800 -1,652 Descending FAA TRACON SMA TRACON (SMA)
Tue 08:28:24 PM 40.1242 -76.3075 106° East 390 449 12,300 -1,950 Descending FAA TRACON SMA TRACON (SMA)
Tue 08:28:44 PM 40.1172 -76.2561 100° East 377 434 11,500 -1,950 Descending FAA TRACON SMA TRACON (SMA)
Tue 08:29:04 PM 40.1147 -76.2144 94° East 369 425 11,000 -1,800 Descending FAA TRACON SMA TRACON (SMA)
Tue 08:29:24 PM 40.1111 -76.1647 95° East 358 412 10,300 -1,500 Descending FAA TRACON SMA TRACON (SMA)
Tue 08:29:44 PM 40.1075 -76.1267 97° East 344 396 10,000 -450 Descending FAA TRACON SMA TRACON (SMA)
Tue 08:30:04 PM 40.1069 -76.0892 91° East 330 380 10,000 -300 Level FAA TRACON SMA TRACON (SMA)
Tue 08:30:24 PM 40.1031 -76.0575 99° East 301 346 9,800 -585 Descending FAA TRACON SMA TRACON (SMA)
Tue 08:30:45 PM 40.1008 -76.0169 94° East 296 341 9,600 -600 Descending FAA TRACON SMA TRACON (SMA)
Tue 08:31:04 PM 40.0986 -75.9839 95° East 299 344 9,400 -615 Descending FAA TRACON SMA TRACON (SMA)
Tue 08:31:24 PM 40.0964 -75.9503 95° East 298 343 9,200 -750 Descending FAA TRACON SMA TRACON (SMA)
Tue 08:31:44 PM 40.0897 -75.9097 102° East 302 348 8,900 -1,200 Descending FAA TRACON SMA TRACON (SMA)
Tue 08:32:04 PM 40.0711 -75.8842 134° Southeast 278 320 8,400 -1,650 Descending FAA TRACON SMA TRACON (SMA)
Tue 08:32:24 PM 40.0461 -75.8642 149° Southeast 301 346 7,800 -1,650 Descending FAA TRACON SMA TRACON (SMA)
Tue 08:32:44 PM 40.0236 -75.8469 150° Southeast 295 339 7,300 -1,500 Descending FAA TRACON SMA TRACON (SMA)
Tue 08:33:04 PM 40.0028 -75.8297 148° Southeast 291 335 6,800 -1,650 Descending FAA TRACON SMA TRACON (SMA)
Tue 08:33:24 PM 39.9753 -75.8156 158° South 294 338 6,200 -1,200 Descending FAA TRACON SMA TRACON (SMA)
Tue 08:33:44 PM 39.9506 -75.8086 168° South 262 302 6,000 -300 Descending FAA TRACON SMA TRACON (SMA)
Tue 08:34:04 PM 39.9289 -75.8033 169° South 269 310 6,000  Level FAA TRACON SMA TRACON (SMA)
Tue 08:34:25 PM 39.9039 -75.7961 168° South 246 283 6,000  Level FAA TRACON SMA TRACON (SMA)
Tue 08:34:44 PM 39.8853 -75.7908 168° South 223 257 6,000 -450 Level FAA TRACON SMA TRACON (SMA)
Tue 08:35:05 PM 39.8678 -75.7856 167° South 217 250 5,700 -1,050 Descending FAA TRACON SMA TRACON (SMA)
Tue 08:35:24 PM 39.8453 -75.7789 167° South 211 243 5,300 -1,050 Descending FAA TRACON SMA TRACON (SMA)
Tue 08:35:45 PM 39.8350 -75.7611 127° Southeast 204 235 5,000 -900 Descending FAA TRACON SMA TRACON (SMA)
Tue 08:36:04 PM 39.8286 -75.7394 111° Southeast 195 224 4,700 -615 Descending FAA TRACON SMA TRACON (SMA)
Tue 08:36:24 PM 39.8225 -75.7144 108° East 185 213 4,600 -585 Descending FAA TRACON SMA TRACON (SMA)
Tue 08:36:45 PM 39.8181 -75.6961 108° East 176 203 4,300 -900 Descending FAA TRACON SMA TRACON (SMA)
Tue 08:37:04 PM 39.8128 -75.6775 110° East 175 201 4,000 -450 Descending FAA TRACON SMA TRACON (SMA)
Tue 08:37:25 PM 39.8086 -75.6561 104° East 175 201 4,000  Level FAA TRACON SMA TRACON (SMA)
Tue 08:37:44 PM 39.8028 -75.6361 111° Southeast 175 201 4,000  Level FAA TRACON SMA TRACON (SMA)
Tue 08:38:05 PM 39.7983 -75.6175 107° East 175 201 4,000  Level FAA TRACON SMA TRACON (SMA)
Tue 08:38:25 PM 39.7961 -75.5931 97° East 180 207 4,000  Level FAA TRACON SMA TRACON (SMA)
Tue 08:38:44 PM 39.8003 -75.5747 74° East 177 204 4,000  Level FAA TRACON SMA TRACON (SMA)
Tue 08:39:04 PM 39.8047 -75.5567 72° East 176 203 4,000  Level FAA TRACON SMA TRACON (SMA)
Tue 08:39:25 PM 39.8094 -75.5319 76° East 175 201 4,000 -300 Level FAA TRACON SMA TRACON (SMA)
Tue 08:39:44 PM 39.8133 -75.5128 75° East 176 203 3,800 -698 Descending FAA TRACON SMA TRACON (SMA)
Tue 08:40:08 PM 39.8169 -75.4936 76° East 176 203 3,500 -837 Descending FAA TRACON SMA TRACON (SMA)
Tue 08:40:27 PM 39.8214 -75.4708 76° East 176 203 3,200 -1,000 Descending FAA TRACON SMA TRACON (SMA)
Tue 08:40:44 PM 39.8256 -75.4511 75° East 176 203 2,900 -1,059 Descending FAA TRACON SMA TRACON (SMA)

Login

Don't have an account? Register now (free) for customized features, flight alerts, and more!